Time;durP1;ratioP1;P1;durP2;ratioP2;P2;SDS_P1;SDS_P2;PMS_P1;PMS_P2;Temp;Humidity;BMP_temperature;BMP_pressure;BME280_temperature;BME280_humidity;BME280_pressure;Samples;Min_cycle;Max_cycle;Signal;HPM_P1;HPM_P2
2023/03/21 00:01:48;;;;;;;5.40;4.00;;;8.70;99.90;;;;;;5046076;28;20217;-41
2023/03/21 00:04:13;;;;;;;4.60;4.00;;;8.70;99.90;;;;;;5042136;28;20286;-41
2023/03/21 00:06:40;;;;;;;4.37;3.93;;;8.80;99.90;;;;;;5031882;28;20261;-42
2023/03/21 00:09:06;;;;;;;5.57;3.70;;;8.80;99.90;;;;;;5044445;28;20648;-40
2023/03/21 00:11:32;;;;;;;4.00;3.53;;;8.80;99.90;;;;;;5055418;28;20232;-43
2023/03/21 00:14:01;;;;;;;4.17;3.30;;;8.80;99.90;;;;;;5050894;28;20229;-40
2023/03/21 00:16:29;;;;;;;5.33;3.67;;;8.80;99.90;;;;;;5062580;28;20284;-42
2023/03/21 00:18:56;;;;;;;5.30;3.83;;;8.80;99.90;;;;;;5061145;28;20184;-42
2023/03/21 00:21:27;;;;;;;4.63;4.00;;;8.80;99.90;;;;;;5066346;28;20174;-43
2023/03/21 00:23:54;;;;;;;5.43;3.53;;;8.90;99.90;;;;;;5031832;28;20189;-41
2023/03/21 00:26:21;;;;;;;5.70;4.10;;;8.90;99.90;;;;;;5047615;28;20276;-43
2023/03/21 00:28:47;;;;;;;4.53;4.07;;;8.90;99.90;;;;;;5041490;28;20210;-43
2023/03/21 00:31:13;;;;;;;5.33;4.07;;;8.90;99.90;;;;;;5040553;28;20201;-43
2023/03/21 00:33:39;;;;;;;5.83;4.40;;;8.90;99.90;;;;;;5064354;28;20204;-40
2023/03/21 00:36:07;;;;;;;5.77;4.50;;;8.90;99.90;;;;;;5046405;28;20277;-41
2023/03/21 00:38:33;;;;;;;4.20;3.80;;;8.90;99.90;;;;;;5033474;28;20210;-41
2023/03/21 00:40:59;;;;;;;4.90;3.70;;;8.90;99.90;;;;;;5046998;28;20177;-40
2023/03/21 00:43:28;;;;;;;5.10;4.17;;;8.80;99.90;;;;;;5053600;28;20198;-43
2023/03/21 00:45:56;;;;;;;4.20;3.80;;;8.80;99.90;;;;;;5033059;28;20186;-42
2023/03/21 00:48:21;;;;;;;4.77;4.07;;;8.80;99.90;;;;;;5049394;28;20185;-43
2023/03/21 00:50:51;;;;;;;6.27;4.30;;;8.80;99.90;;;;;;5044567;28;20178;-43
2023/03/21 00:53:17;;;;;;;4.70;3.90;;;8.80;99.90;;;;;;5041761;28;20237;-43
2023/03/21 00:55:43;;;;;;;4.20;3.80;;;8.80;99.90;;;;;;5033448;28;20198;-43
2023/03/21 00:58:10;;;;;;;4.63;4.00;;;8.80;99.90;;;;;;5044412;28;20202;-42
2023/03/21 01:00:36;;;;;;;5.33;4.23;;;8.80;99.90;;;;;;5052318;28;20178;-43
2023/03/21 01:03:06;;;;;;;4.60;4.00;;;8.80;99.90;;;;;;5041848;28;20178;-43
2023/03/21 01:08:27;;;;;;;4.57;4.13;;;8.80;99.90;;;;;;5056611;28;20182;-43
2023/03/21 01:10:54;;;;;;;4.87;4.00;;;8.80;99.90;;;;;;5033114;28;20191;-43
2023/03/21 01:13:21;;;;;;;6.53;4.10;;;8.80;99.90;;;;;;5035257;28;20202;-43
2023/03/21 01:15:50;;;;;;;7.10;4.13;;;8.80;99.90;;;;;;5039721;28;20256;-41
2023/03/21 01:18:19;;;;;;;5.43;3.77;;;8.80;99.90;;;;;;5050750;28;20170;-43
2023/03/21 01:20:46;;;;;;;4.53;3.90;;;8.80;99.90;;;;;;5050902;28;20178;-42
2023/03/21 01:23:14;;;;;;;5.47;4.00;;;8.80;99.90;;;;;;5033779;28;20189;-42
2023/03/21 01:25:40;;;;;;;5.03;4.13;;;8.80;99.90;;;;;;5032258;28;20575;-43
2023/03/21 01:28:06;;;;;;;5.83;4.97;;;8.80;99.90;;;;;;5051781;28;20174;-41
2023/03/21 01:30:33;;;;;;;5.03;4.10;;;8.80;99.90;;;;;;5052809;28;20186;-43
2023/03/21 01:33:00;;;;;;;6.33;4.43;;;8.80;99.90;;;;;;5050269;28;20269;-41
2023/03/21 01:35:26;;;;;;;4.77;4.07;;;8.80;99.90;;;;;;5051832;28;20309;-43
2023/03/21 01:37:52;;;;;;;6.33;4.33;;;8.80;99.90;;;;;;5051975;28;20182;-43
2023/03/21 01:40:23;;;;;;;4.70;4.20;;;8.80;99.90;;;;;;5051554;28;20179;-41
2023/03/21 01:42:51;;;;;;;6.23;4.90;;;8.90;99.90;;;;;;5040513;28;20185;-42
2023/03/21 01:45:57;;;;;;;6.10;4.80;;;8.90;99.90;;;;;;5043847;28;20185;-43
2023/03/21 01:48:31;;;;;;;6.07;4.30;;;8.90;99.90;;;;;;5033001;28;20170;-42
2023/03/21 01:50:59;;;;;;;5.53;4.10;;;8.90;99.90;;;;;;5033436;28;20178;-42
2023/03/21 01:53:40;;;;;;;5.83;4.33;;;8.90;99.90;;;;;;5044294;28;20198;-43
2023/03/21 01:56:15;;;;;;;4.90;3.80;;;8.90;99.90;;;;;;5048033;28;20273;-41
2023/03/21 01:58:49;;;;;;;5.27;4.30;;;8.80;99.90;;;;;;5051771;28;20204;-43
2023/03/21 02:01:41;;;;;;;4.90;4.20;;;8.80;99.90;;;;;;5023848;28;20182;-42
2023/03/21 02:04:09;;;;;;;5.43;4.07;;;8.80;99.90;;;;;;5046425;28;20256;-42
2023/03/21 02:07:12;;;;;;;7.17;4.30;;;8.80;99.90;;;;;;5048642;28;20242;-43
2023/03/21 02:09:52;;;;;;;5.70;4.20;;;8.80;99.90;;;;;;5031756;28;20242;-42
2023/03/21 02:12:21;;;;;;;4.73;4.20;;;8.80;99.90;;;;;;5031819;28;20178;-43
2023/03/21 02:14:50;;;;;;;5.20;4.33;;;8.80;99.90;;;;;;5035622;28;20222;-39
2023/03/21 02:17:37;;;;;;;5.43;3.93;;;8.80;99.90;;;;;;5035882;28;20301;-41
2023/03/21 02:20:38;;;;;;;5.00;3.80;;;8.80;99.90;;;;;;5063320;28;20236;-42
2023/03/21 02:23:50;;;;;;;5.43;3.70;;;8.80;99.90;;;;;;5054113;28;20182;-41
2023/03/21 02:26:53;;;;;;;4.90;3.80;;;8.80;99.90;;;;;;5032547;28;20198;-42
2023/03/21 02:29:46;;;;;;;4.87;3.57;;;8.70;99.90;;;;;;5056177;28;20183;-41
2023/03/21 02:32:47;;;;;;;4.43;4.03;;;8.70;99.90;;;;;;5043376;28;20174;-41
2023/03/21 02:35:28;;;;;;;6.40;4.03;;;8.70;99.90;;;;;;5035407;28;20206;-41
2023/03/21 02:38:32;;;;;;;5.77;4.10;;;8.70;99.90;;;;;;5051279;28;20249;-43
2023/03/21 02:41:15;;;;;;;4.53;3.53;;;8.60;99.90;;;;;;5030935;28;20171;-39
2023/03/21 02:44:07;;;;;;;4.27;3.67;;;8.60;99.90;;;;;;5051860;28;20198;-41
2023/03/21 02:46:54;;;;;;;4.03;3.57;;;8.60;99.90;;;;;;5056861;28;20723;-40
2023/03/21 02:49:33;;;;;;;4.77;3.83;;;8.60;99.90;;;;;;5030708;28;20193;-42
2023/03/21 02:52:02;;;;;;;4.13;3.60;;;8.60;99.90;;;;;;5041310;28;20179;-40
2023/03/21 02:54:30;;;;;;;5.47;3.67;;;8.60;99.90;;;;;;5048326;28;20224;-42
2023/03/21 02:56:59;;;;;;;4.47;3.93;;;8.60;99.90;;;;;;5057563;28;20209;-39
2023/03/21 02:59:27;;;;;;;6.30;4.00;;;8.60;99.90;;;;;;5049153;28;20285;-40
2023/03/21 03:01:55;;;;;;;3.83;3.40;;;8.60;99.90;;;;;;5067241;28;20186;-41
2023/03/21 03:04:26;;;;;;;4.40;3.90;;;8.60;99.90;;;;;;5049539;28;20197;-42
2023/03/21 03:06:59;;;;;;;4.47;3.80;;;8.60;99.90;;;;;;5038958;28;20178;-40
2023/03/21 03:09:38;;;;;;;4.40;3.90;;;8.60;99.90;;;;;;5039979;28;20189;-40
2023/03/21 03:12:21;;;;;;;3.87;3.50;;;8.60;99.90;;;;;;5067118;28;20181;-40
2023/03/21 03:15:08;;;;;;;3.87;3.33;;;8.60;99.90;;;;;;5065192;28;20198;-41
2023/03/21 03:17:47;;;;;;;6.23;3.93;;;8.60;99.90;;;;;;5046733;28;20206;-40
2023/03/21 03:20:48;;;;;;;3.70;3.37;;;8.60;99.90;;;;;;5039183;28;20205;-40
2023/03/21 03:23:54;;;;;;;6.20;3.80;;;8.70;99.90;;;;;;4990447;28;20241;-41
2023/03/21 03:26:44;;;;;;;4.40;4.00;;;8.60;99.90;;;;;;4990516;28;20191;-39
2023/03/21 03:29:16;;;;;;;5.27;4.03;;;8.50;99.90;;;;;;4997611;28;20203;-39
2023/03/21 03:32:00;;;;;;;4.47;3.47;;;8.40;99.90;;;;;;5025613;28;20197;-41
2023/03/21 03:34:33;;;;;;;3.97;3.57;;;8.40;99.90;;;;;;5065826;28;20206;-40
2023/03/21 03:37:04;;;;;;;4.20;3.73;;;8.40;99.90;;;;;;5030173;28;20229;-40
2023/03/21 03:39:56;;;;;;;3.77;3.47;;;8.30;99.90;;;;;;5047238;28;20186;-41
2023/03/21 03:42:48;;;;;;;4.53;3.87;;;8.30;99.90;;;;;;5041175;28;20209;-41
2023/03/21 03:45:28;;;;;;;4.17;3.77;;;8.20;99.90;;;;;;5048934;28;20173;-41
2023/03/21 03:47:59;;;;;;;5.37;3.90;;;8.10;99.90;;;;;;5035567;28;20212;-40
2023/03/21 03:50:40;;;;;;;5.10;4.27;;;8.10;99.90;;;;;;5052120;28;20182;-41
2023/03/21 03:53:15;;;;;;;5.13;4.10;;;8.10;99.90;;;;;;5049888;28;20665;-42
2023/03/21 03:55:43;;;;;;;4.67;4.17;;;8.00;99.90;;;;;;5064358;28;20205;-39
2023/03/21 03:58:17;;;;;;;5.90;4.10;;;8.00;99.90;;;;;;5030091;28;20174;-40
2023/03/21 04:00:44;;;;;;;3.80;3.47;;;7.90;99.90;;;;;;5055130;28;20175;-40
2023/03/21 04:03:10;;;;;;;5.33;3.77;;;7.80;99.90;;;;;;5057215;28;20182;-40
2023/03/21 04:05:36;;;;;;;4.03;3.47;;;7.70;99.90;;;;;;5081970;28;20185;-43
2023/03/21 04:08:02;;;;;;;4.10;3.50;;;7.50;99.90;;;;;;5051443;28;20182;-41
2023/03/21 04:10:38;;;;;;;4.60;3.50;;;7.40;99.90;;;;;;5045535;28;20182;-41
2023/03/21 04:13:04;;;;;;;4.63;4.00;;;7.40;99.90;;;;;;5047550;28;20269;-42
2023/03/21 04:15:48;;;;;;;4.93;3.87;;;7.30;99.90;;;;;;5050107;28;20279;-41
2023/03/21 04:18:15;;;;;;;5.60;4.30;;;7.20;99.90;;;;;;5060597;28;20178;-39
2023/03/21 04:20:43;;;;;;;4.30;3.90;;;7.20;99.90;;;;;;5033349;28;20181;-39
2023/03/21 04:23:10;;;;;;;4.33;3.57;;;7.10;99.90;;;;;;5049385;28;20177;-40
2023/03/21 04:25:37;;;;;;;3.87;3.37;;;7.10;99.90;;;;;;5038694;28;20165;-39
2023/03/21 04:28:04;;;;;;;6.67;4.40;;;7.20;99.90;;;;;;5057630;28;20272;-40
2023/03/21 04:30:59;;;;;;;4.20;3.70;;;7.20;99.90;;;;;;5034069;28;20584;-42
2023/03/21 04:33:25;;;;;;;5.57;3.93;;;7.20;99.90;;;;;;5042684;28;20281;-43
2023/03/21 04:35:57;;;;;;;3.73;3.43;;;7.20;99.90;;;;;;5045187;28;20260;-41
2023/03/21 04:38:29;;;;;;;5.33;3.67;;;7.20;99.90;;;;;;5043831;28;20204;-40
2023/03/21 04:40:57;;;;;;;5.10;3.77;;;7.10;99.90;;;;;;5048013;28;20173;-40
2023/03/21 04:43:23;;;;;;;3.97;3.57;;;7.00;99.90;;;;;;5061678;28;20247;-40
2023/03/21 04:45:49;;;;;;;4.40;3.97;;;7.00;99.90;;;;;;5045984;28;20260;-41
2023/03/21 04:48:18;;;;;;;5.97;3.50;;;6.90;99.90;;;;;;5030391;28;20186;-40
2023/03/21 04:50:45;;;;;;;6.13;4.47;;;6.90;99.90;;;;;;5030089;28;20197;-41
2023/03/21 04:53:11;;;;;;;4.47;4.07;;;6.90;99.90;;;;;;5061810;28;20178;-39
2023/03/21 04:55:37;;;;;;;4.80;4.30;;;6.80;99.90;;;;;;5062068;28;20288;-41
2023/03/21 04:58:05;;;;;;;4.23;3.50;;;6.80;99.90;;;;;;5042468;28;20229;-41
2023/03/21 05:00:36;;;;;;;5.97;3.77;;;6.80;99.90;;;;;;5044353;28;20189;-40
2023/03/21 05:03:07;;;;;;;6.13;4.10;;;6.80;99.90;;;;;;5036636;28;20185;-43
2023/03/21 05:05:37;;;;;;;5.40;4.30;;;6.80;99.90;;;;;;5046368;28;20272;-42
2023/03/21 05:08:05;;;;;;;6.83;5.20;;;6.70;99.90;;;;;;5031484;28;20179;-43
2023/03/21 05:10:31;;;;;;;4.60;4.07;;;6.60;99.90;;;;;;5040064;28;20235;-41
2023/03/21 05:12:57;;;;;;;4.47;3.73;;;6.60;99.90;;;;;;5028852;28;20186;-42
2023/03/21 05:15:22;;;;;;;4.70;3.93;;;6.60;99.90;;;;;;5029834;28;20180;-43
2023/03/21 05:17:48;;;;;;;5.27;3.90;;;6.50;99.90;;;;;;5045338;28;20244;-42
2023/03/21 05:20:16;;;;;;;3.87;3.50;;;6.40;99.90;;;;;;5062845;28;20185;-42
2023/03/21 05:22:44;;;;;;;4.47;4.07;;;6.40;99.90;;;;;;5051221;28;20184;-41
2023/03/21 05:25:13;;;;;;;4.90;4.27;;;6.40;99.90;;;;;;5050443;28;20193;-41
2023/03/21 05:28:00;;;;;;;4.67;4.20;;;6.40;99.90;;;;;;5045232;28;20177;-41
2023/03/21 05:30:29;;;;;;;26.23;17.80;;;6.30;99.90;;;;;;5049575;28;20184;-41
2023/03/21 05:32:58;;;;;;;23.83;16.80;;;6.30;99.90;;;;;;5033339;28;20228;-40
2023/03/21 05:35:25;;;;;;;17.13;14.57;;;6.20;99.90;;;;;;5063891;28;20282;-41
2023/03/21 05:37:52;;;;;;;17.83;14.27;;;6.20;99.90;;;;;;5030256;28;20211;-42
2023/03/21 05:40:18;;;;;;;14.47;12.23;;;6.20;99.90;;;;;;5054062;28;20183;-43
2023/03/21 05:42:46;;;;;;;26.30;14.57;;;6.30;99.90;;;;;;5070510;28;20176;-43
2023/03/21 05:45:21;;;;;;;11.17;7.20;;;6.30;99.90;;;;;;5034562;28;20183;-42
2023/03/21 05:47:49;;;;;;;6.33;4.73;;;6.30;99.90;;;;;;5039389;28;20245;-42
2023/03/21 05:50:16;;;;;;;7.47;5.17;;;6.40;99.90;;;;;;5050739;28;20204;-41
2023/03/21 05:52:48;;;;;;;6.73;5.03;;;6.40;99.90;;;;;;5032134;28;20228;-42
2023/03/21 05:55:14;;;;;;;5.57;5.07;;;6.50;99.90;;;;;;5031919;28;20204;-42
2023/03/21 05:57:41;;;;;;;8.57;4.80;;;6.60;99.90;;;;;;5046919;28;20265;-42
2023/03/21 06:00:14;;;;;;;5.73;4.70;;;6.70;99.90;;;;;;5049072;28;20199;-42
2023/03/21 06:02:43;;;;;;;6.30;4.63;;;6.70;99.90;;;;;;5035268;28;20193;-43
2023/03/21 06:05:32;;;;;;;6.70;5.37;;;6.80;99.90;;;;;;5048775;28;20213;-42
2023/03/21 06:07:58;;;;;;;8.77;4.30;;;6.90;99.90;;;;;;5052541;28;20258;-42
2023/03/21 06:10:24;;;;;;;7.20;5.00;;;6.90;99.90;;;;;;5050045;28;20208;-40
2023/03/21 06:12:50;;;;;;;6.37;4.60;;;6.90;99.90;;;;;;5051583;28;20184;-42
2023/03/21 06:15:30;;;;;;;5.43;4.33;;;6.90;99.90;;;;;;5047679;28;20180;-42
2023/03/21 06:18:03;;;;;;;7.90;4.90;;;7.00;99.90;;;;;;5034560;28;20196;-43
2023/03/21 06:20:31;;;;;;;8.20;5.27;;;7.10;99.90;;;;;;5048109;28;20204;-42
2023/03/21 06:23:07;;;;;;;5.87;4.27;;;7.30;99.90;;;;;;5053429;28;20188;-40
2023/03/21 06:25:33;;;;;;;6.77;4.60;;;7.40;99.90;;;;;;5032104;28;20182;-42
2023/03/21 06:27:59;;;;;;;7.60;5.00;;;7.50;99.90;;;;;;5043531;28;20288;-42
2023/03/21 06:30:26;;;;;;;5.47;4.60;;;7.60;99.90;;;;;;5063229;28;20192;-43
2023/03/21 06:33:15;;;;;;;8.87;5.40;;;7.60;99.90;;;;;;5037609;28;20213;-41
2023/03/21 06:35:42;;;;;;;6.20;5.17;;;7.60;99.90;;;;;;5041459;28;20280;-41
2023/03/21 06:38:09;;;;;;;6.60;4.53;;;7.60;99.90;;;;;;5049812;28;20372;-40
2023/03/21 06:40:36;;;;;;;6.70;4.97;;;7.60;99.90;;;;;;5052930;28;20241;-40
2023/03/21 06:43:02;;;;;;;5.03;4.50;;;7.60;99.90;;;;;;5052983;28;20189;-38
2023/03/21 06:45:29;;;;;;;7.03;4.87;;;7.70;99.90;;;;;;5033872;28;20177;-41
2023/03/21 06:47:55;;;;;;;5.87;4.43;;;7.70;99.90;;;;;;5051008;28;20182;-41
2023/03/21 06:50:41;;;;;;;7.13;4.53;;;7.80;99.90;;;;;;5050816;28;20188;-40
2023/03/21 06:53:07;;;;;;;7.97;4.73;;;7.80;99.90;;;;;;5067480;28;20188;-42
2023/03/21 06:55:49;;;;;;;6.10;5.23;;;7.80;99.90;;;;;;5050446;28;20180;-42
2023/03/21 06:58:16;;;;;;;6.27;4.63;;;7.80;99.90;;;;;;5033004;28;20177;-43
2023/03/21 07:00:43;;;;;;;8.07;4.70;;;7.90;99.90;;;;;;5047399;28;20174;-43
2023/03/21 07:03:10;;;;;;;6.77;4.37;;;7.90;99.90;;;;;;5052407;28;20185;-42
2023/03/21 07:05:38;;;;;;;6.03;4.17;;;8.00;99.90;;;;;;5067048;28;20657;-43
2023/03/21 07:08:05;;;;;;;5.80;4.17;;;8.00;99.90;;;;;;5050488;28;20196;-43
2023/03/21 07:10:33;;;;;;;6.20;4.50;;;8.10;99.90;;;;;;5067162;28;20189;-43
2023/03/21 07:13:05;;;;;;;9.33;4.50;;;8.10;99.90;;;;;;5050551;28;20178;-43
2023/03/21 07:15:53;;;;;;;5.93;4.80;;;8.20;99.90;;;;;;5046572;28;20206;-41
2023/03/21 07:18:19;;;;;;;5.13;4.40;;;8.20;99.90;;;;;;5050667;28;20208;-43
2023/03/21 07:20:52;;;;;;;6.73;4.03;;;8.30;99.90;;;;;;5047746;28;20268;-42
2023/03/21 07:23:22;;;;;;;5.07;3.93;;;8.40;99.90;;;;;;5040439;28;20225;-41
2023/03/21 07:25:49;;;;;;;6.30;4.40;;;8.40;99.90;;;;;;5056029;28;20202;-40
2023/03/21 07:28:16;;;;;;;5.83;3.83;;;8.50;99.90;;;;;;5055211;28;20209;-39
2023/03/21 07:30:42;;;;;;;4.43;3.77;;;8.50;99.90;;;;;;5057189;28;20185;-40
2023/03/21 07:33:10;;;;;;;4.03;3.70;;;8.60;99.90;;;;;;5040319;28;20262;-42
2023/03/21 07:35:36;;;;;;;5.90;3.67;;;8.70;99.90;;;;;;5047422;28;20248;-41
2023/03/21 07:38:04;;;;;;;4.30;3.50;;;8.70;99.90;;;;;;5043629;28;20245;-41
2023/03/21 07:40:31;;;;;;;4.70;3.87;;;8.80;99.90;;;;;;5039356;28;20269;-42
2023/03/21 07:42:57;;;;;;;5.60;3.70;;;8.90;99.90;;;;;;5055720;28;20208;-41
2023/03/21 07:45:33;;;;;;;4.67;3.90;;;9.00;99.90;;;;;;5039982;28;20192;-41
2023/03/21 07:48:00;;;;;;;4.43;3.67;;;9.10;99.90;;;;;;5039307;28;20290;-40
2023/03/21 07:50:26;;;;;;;4.83;3.60;;;9.30;99.90;;;;;;5048002;28;20308;-41
2023/03/21 07:52:53;;;;;;;4.90;3.83;;;9.40;99.90;;;;;;5050609;28;20182;-40
2023/03/21 07:55:19;;;;;;;4.17;3.43;;;9.60;99.90;;;;;;5064957;28;20252;-41
2023/03/21 07:57:45;;;;;;;3.47;3.17;;;9.70;99.90;;;;;;5048421;28;20189;-41
2023/03/21 08:00:21;;;;;;;4.17;3.67;;;9.80;99.90;;;;;;5048355;28;20209;-42
2023/03/21 08:02:58;;;;;;;4.90;3.10;;;10.00;99.90;;;;;;5045555;28;20185;-40
2023/03/21 08:05:30;;;;;;;5.27;3.60;;;10.00;99.90;;;;;;5045590;28;20188;-41
2023/03/21 08:07:56;;;;;;;4.67;3.63;;;10.10;99.90;;;;;;5030488;28;20174;-39
2023/03/21 08:10:22;;;;;;;3.97;3.57;;;10.20;99.90;;;;;;5031069;28;20190;-42
2023/03/21 08:12:48;;;;;;;4.53;3.90;;;10.40;99.90;;;;;;5030894;28;20228;-42
2023/03/21 08:15:14;;;;;;;3.90;3.53;;;10.50;99.90;;;;;;5029366;28;20763;-38
2023/03/21 08:17:44;;;;;;;3.70;3.07;;;10.50;99.90;;;;;;5030964;28;20206;-40
2023/03/21 08:20:14;;;;;;;5.83;3.67;;;10.40;99.90;;;;;;5031048;28;20253;-42
2023/03/21 08:22:40;;;;;;;3.77;3.30;;;10.50;99.90;;;;;;5030856;28;20171;-42
2023/03/21 08:25:09;;;;;;;4.60;3.20;;;10.70;99.90;;;;;;5030691;28;20182;-42
2023/03/21 08:27:35;;;;;;;3.67;3.37;;;10.80;99.90;;;;;;5042676;28;20205;-42
2023/03/21 08:30:02;;;;;;;4.10;2.97;;;10.80;99.90;;;;;;5062041;28;20225;-40
2023/03/21 08:32:31;;;;;;;3.17;2.87;;;10.90;99.90;;;;;;5049590;28;20182;-41
2023/03/21 08:34:59;;;;;;;4.10;3.30;;;10.90;99.90;;;;;;5050396;28;20205;-40
2023/03/21 08:37:25;;;;;;;3.93;3.20;;;11.10;99.90;;;;;;5066120;28;20268;-41
2023/03/21 08:39:52;;;;;;;4.00;2.93;;;11.40;99.90;;;;;;5065281;28;20297;-41
2023/03/21 08:42:18;;;;;;;3.40;3.10;;;11.50;99.90;;;;;;5065838;28;20221;-40
2023/03/21 08:44:44;;;;;;;5.23;3.23;;;11.70;99.90;;;;;;5050300;28;20209;-42
2023/03/21 08:47:10;;;;;;;3.13;2.83;;;11.90;99.90;;;;;;5050678;28;20278;-41
2023/03/21 08:49:36;;;;;;;3.57;3.20;;;12.20;99.90;;;;;;5049335;28;20275;-43
2023/03/21 08:52:02;;;;;;;3.47;3.10;;;12.30;99.90;;;;;;5049349;28;20212;-42
2023/03/21 08:54:28;;;;;;;5.27;2.80;;;12.40;99.90;;;;;;5050439;28;20205;-43
2023/03/21 08:56:53;;;;;;;3.27;2.73;;;12.50;99.90;;;;;;5052116;28;20200;-43
2023/03/21 08:59:19;;;;;;;5.10;2.90;;;12.60;99.90;;;;;;5061232;28;20253;-43
2023/03/21 09:01:45;;;;;;;4.20;3.07;;;12.50;99.90;;;;;;5054811;28;20220;-43
2023/03/21 09:04:11;;;;;;;4.77;2.80;;;12.50;99.90;;;;;;5069600;28;20194;-43
2023/03/21 09:06:44;;;;;;;4.47;2.80;;;12.50;99.90;;;;;;5054427;28;20263;-43
2023/03/21 09:09:11;;;;;;;4.93;2.90;;;12.50;99.90;;;;;;5069567;28;20200;-41
2023/03/21 09:11:37;;;;;;;3.00;2.70;;;12.40;99.90;;;;;;5069670;28;20190;-43
2023/03/21 09:14:03;;;;;;;2.80;2.50;;;12.50;99.90;;;;;;5052476;28;20205;-42
2023/03/21 09:16:30;;;;;;;3.57;2.60;;;12.60;99.90;;;;;;5069050;28;20201;-43
2023/03/21 09:18:57;;;;;;;3.40;2.73;;;12.70;99.90;;;;;;5069666;28;20181;-42
2023/03/21 09:21:27;;;;;;;3.73;2.63;;;12.90;99.90;;;;;;5069355;28;20176;-43
2023/03/21 09:23:55;;;;;;;2.83;2.47;;;13.10;99.90;;;;;;5052597;28;20202;-43
2023/03/21 09:26:22;;;;;;;2.47;2.27;;;13.30;99.90;;;;;;5053830;28;20201;-40
2023/03/21 09:28:49;;;;;;;3.07;2.40;;;13.20;99.90;;;;;;5060737;28;20203;-40
2023/03/21 09:31:21;;;;;;;2.43;2.17;;;13.40;99.90;;;;;;5053720;28;20209;-42
2023/03/21 09:33:48;;;;;;;4.67;2.93;;;13.70;99.90;;;;;;5068652;28;20206;-39
2023/03/21 09:36:18;;;;;;;3.67;2.70;;;13.80;99.90;;;;;;5068932;28;20260;-41
2023/03/21 09:38:45;;;;;;;4.90;3.00;;;14.00;99.90;;;;;;5069086;28;20174;-41
2023/03/21 09:41:31;;;;;;;3.07;2.70;;;14.20;99.90;;;;;;5068852;28;20174;-39
2023/03/21 09:44:27;;;;;;;2.97;2.60;;;14.30;99.90;;;;;;5052014;28;20194;-41
2023/03/21 09:47:02;;;;;;;3.47;2.70;;;14.40;99.90;;;;;;5068984;28;20178;-41
2023/03/21 09:49:34;;;;;;;2.90;2.60;;;14.50;99.90;;;;;;5053186;28;20181;-41
2023/03/21 09:52:04;;;;;;;4.07;2.70;;;14.50;99.90;;;;;;5052083;28;20297;-43
2023/03/21 09:54:39;;;;;;;3.90;3.17;;;14.60;99.90;;;;;;5068433;28;20193;-43
2023/03/21 09:57:40;;;;;;;3.67;2.63;;;14.60;99.90;;;;;;5053049;28;20232;-43
2023/03/21 10:00:15;;;;;;;3.63;3.20;;;14.70;99.90;;;;;;5041533;28;20199;-43
2023/03/21 10:02:46;;;;;;;4.37;3.10;;;14.70;99.90;;;;;;5033072;28;20178;-42
2023/03/21 10:05:14;;;;;;;3.87;3.47;;;14.70;99.90;;;;;;5048233;28;20198;-43
2023/03/21 10:07:52;;;;;;;3.73;2.97;;;14.70;99.90;;;;;;5032626;28;20174;-42
2023/03/21 10:10:28;;;;;;;3.83;3.03;;;14.70;99.90;;;;;;5031841;28;20186;-42
2023/03/21 10:12:55;;;;;;;4.40;3.33;;;14.80;99.90;;;;;;5032917;28;20189;-41
2023/03/21 10:15:24;;;;;;;3.07;2.77;;;14.80;99.90;;;;;;5032802;28;20203;-42
2023/03/21 10:18:00;;;;;;;3.20;2.90;;;14.70;99.90;;;;;;5048039;28;20206;-43
2023/03/21 10:20:34;;;;;;;3.73;3.00;;;14.80;99.90;;;;;;5048246;28;20232;-41
2023/03/21 10:23:03;;;;;;;4.23;3.10;;;14.80;99.90;;;;;;5031779;28;20194;-41
2023/03/21 10:25:53;;;;;;;3.33;3.03;;;14.90;99.90;;;;;;5032687;28;20190;-40
2023/03/21 10:28:22;;;;;;;3.80;3.10;;;15.00;99.90;;;;;;5047906;28;20174;-42
2023/03/21 10:30:54;;;;;;;2.97;2.60;;;15.00;99.90;;;;;;5047890;28;20295;-40
2023/03/21 10:33:24;;;;;;;4.40;2.70;;;15.10;99.90;;;;;;5032856;28;20186;-42
2023/03/21 10:35:56;;;;;;;3.50;3.20;;;15.10;99.90;;;;;;5031024;28;20190;-41
2023/03/21 10:38:24;;;;;;;4.93;2.80;;;15.20;99.90;;;;;;5032269;28;20190;-42
2023/03/21 10:40:50;;;;;;;4.53;3.20;;;15.30;99.90;;;;;;5032435;28;20273;-42
2023/03/21 10:43:39;;;;;;;3.20;2.47;;;15.20;99.90;;;;;;5047929;28;20233;-42
2023/03/21 10:46:15;;;;;;;4.33;2.60;;;15.20;99.90;;;;;;5031046;28;20194;-42
2023/03/21 10:48:45;;;;;;;4.67;3.00;;;15.20;99.90;;;;;;5032237;28;20213;-42
2023/03/21 10:51:16;;;;;;;3.00;2.70;;;15.20;99.90;;;;;;5032638;28;20184;-41
2023/03/21 10:53:52;;;;;;;3.67;2.77;;;15.20;99.90;;;;;;5052487;28;20289;-43
2023/03/21 10:56:25;;;;;;;2.90;2.57;;;15.30;99.90;;;;;;5037684;28;20213;-41
2023/03/21 10:58:53;;;;;;;3.03;2.67;;;15.20;99.90;;;;;;5043589;28;20174;-43
2023/03/21 11:01:29;;;;;;;3.03;2.73;;;15.20;99.90;;;;;;5050791;28;20186;-42
2023/03/21 11:04:09;;;;;;;3.00;2.57;;;15.30;99.90;;;;;;5041501;28;20190;-42
2023/03/21 11:06:41;;;;;;;2.47;2.27;;;15.40;99.90;;;;;;5043103;28;20209;-41
2023/03/21 11:09:14;;;;;;;3.00;2.70;;;15.50;99.90;;;;;;5052271;28;20177;-42
2023/03/21 11:12:01;;;;;;;2.90;2.70;;;15.50;99.90;;;;;;5037278;28;20186;-42
2023/03/21 11:14:30;;;;;;;3.67;2.90;;;15.50;99.90;;;;;;5046574;28;20218;-42
2023/03/21 11:16:57;;;;;;;3.60;2.90;;;15.60;99.90;;;;;;5031824;28;20205;-41
2023/03/21 11:19:35;;;;;;;4.30;3.20;;;15.60;99.90;;;;;;5029609;28;20205;-43
2023/03/21 11:22:07;;;;;;;4.33;3.13;;;15.40;99.90;;;;;;5047890;28;20182;-42
2023/03/21 11:24:35;;;;;;;3.50;3.20;;;15.40;99.90;;;;;;5031438;28;20221;-42
2023/03/21 11:27:06;;;;;;;3.57;2.87;;;15.50;99.90;;;;;;5033865;28;20188;-41
2023/03/21 11:29:44;;;;;;;3.20;2.90;;;15.50;99.90;;;;;;5049999;28;20266;-41
2023/03/21 11:32:33;;;;;;;3.43;3.00;;;15.60;99.90;;;;;;5050489;28;20243;-41
2023/03/21 11:35:11;;;;;;;4.00;2.27;;;15.60;99.90;;;;;;5061849;28;20210;-43
2023/03/21 11:37:37;;;;;;;2.43;2.00;;;15.50;99.90;;;;;;5031891;28;20234;-41
2023/03/21 11:40:23;;;;;;;2.17;1.73;;;15.50;99.90;;;;;;5031372;28;20167;-43
2023/03/21 11:42:55;;;;;;;2.53;2.10;;;15.50;99.90;;;;;;5031491;28;20175;-44
2023/03/21 11:45:23;;;;;;;2.20;1.90;;;15.60;99.90;;;;;;5030784;28;20691;-43
2023/03/21 11:47:51;;;;;;;3.70;2.40;;;15.60;99.90;;;;;;5031236;28;20179;-43
2023/03/21 11:50:32;;;;;;;3.00;1.90;;;15.60;99.90;;;;;;5029924;28;20191;-43
2023/03/21 11:53:27;;;;;;;2.20;2.00;;;15.50;99.90;;;;;;5012440;28;20245;-44
2023/03/21 11:56:03;;;;;;;2.17;1.97;;;15.50;99.90;;;;;;5032537;28;20194;-43
2023/03/21 11:58:54;;;;;;;2.20;1.93;;;15.70;99.90;;;;;;5041244;28;20256;-43
2023/03/21 12:01:26;;;;;;;2.83;2.10;;;15.70;99.90;;;;;;5066766;28;20182;-43
2023/03/21 12:04:10;;;;;;;3.07;2.07;;;15.70;99.90;;;;;;5050996;28;20189;-40
2023/03/21 12:06:55;;;;;;;3.40;1.70;;;15.80;99.90;;;;;;5050766;28;20197;-43
2023/03/21 12:09:32;;;;;;;2.60;2.30;;;15.80;99.90;;;;;;5066308;28;20177;-42
2023/03/21 12:12:32;;;;;;;2.57;2.23;;;15.80;99.90;;;;;;5066189;28;20185;-42
2023/03/21 12:15:07;;;;;;;3.13;2.57;;;15.80;99.90;;;;;;5065856;28;20236;-42
2023/03/21 12:17:56;;;;;;;3.20;2.33;;;15.90;99.90;;;;;;5049597;28;20240;-42
2023/03/21 12:20:40;;;;;;;3.03;2.20;;;15.90;99.90;;;;;;5043807;28;20186;-42
2023/03/21 12:23:06;;;;;;;2.97;2.20;;;15.90;99.90;;;;;;5048885;28;20256;-43
2023/03/21 12:25:55;;;;;;;3.30;2.40;;;15.90;99.90;;;;;;5042215;28;20201;-43
2023/03/21 12:28:36;;;;;;;3.27;2.30;;;16.00;99.90;;;;;;5045934;28;20201;-41
2023/03/21 12:31:02;;;;;;;3.27;2.00;;;16.10;99.90;;;;;;5059349;28;20211;-43
2023/03/21 12:34:04;;;;;;;4.70;2.37;;;16.10;99.90;;;;;;5046483;28;20701;-43
2023/03/21 12:37:16;;;;;;;2.30;2.10;;;16.30;99.90;;;;;;5061325;28;20198;-42
2023/03/21 12:39:47;;;;;;;2.47;1.83;;;16.50;99.90;;;;;;4990661;28;20216;-42
2023/03/21 12:42:33;;;;;;;2.88;2.20;;;16.50;99.90;;;;;;5038447;28;20181;-43
2023/03/21 12:45:10;;;;;;;3.70;1.80;;;16.70;99.90;;;;;;5042391;28;20187;-44
2023/03/21 12:47:41;;;;;;;2.33;1.83;;;16.90;99.90;;;;;;5033322;28;20221;-43
2023/03/21 12:50:29;;;;;;;3.17;1.88;;;17.00;99.90;;;;;;5046252;28;20181;-44
2023/03/21 12:53:00;;;;;;;3.70;2.10;;;17.20;99.90;;;;;;5059676;28;20179;-43
2023/03/21 12:55:34;;;;;;;3.42;1.90;;;17.30;99.90;;;;;;5042377;28;20194;-43
2023/03/21 12:58:17;;;;;;;4.75;1.75;;;17.40;99.90;;;;;;5040357;28;20197;-44
2023/03/21 13:00:53;;;;;;;1.83;1.58;;;17.50;99.90;;;;;;5046880;28;20278;-43
2023/03/21 13:03:21;;;;;;;3.97;1.83;;;17.50;99.90;;;;;;5020708;28;20218;-44
2023/03/21 13:05:57;;;;;;;1.55;1.42;;;17.60;99.90;;;;;;5037973;28;20183;-44
2023/03/21 13:08:29;;;;;;;2.55;1.80;;;17.50;99.90;;;;;;5053821;28;20188;-43
2023/03/21 13:10:57;;;;;;;3.03;1.48;;;17.40;99.90;;;;;;5049972;28;20324;-44
2023/03/21 13:13:45;;;;;;;2.17;1.60;;;17.30;99.90;;;;;;5063650;28;20214;-44
2023/03/21 13:16:29;;;;;;;2.67;1.35;;;17.30;99.90;;;;;;5044782;28;20255;-44
2023/03/21 13:18:58;;;;;;;1.73;1.30;;;17.30;99.90;;;;;;5041108;28;20178;-43
2023/03/21 13:21:59;;;;;;;1.33;1.23;;;17.40;99.90;;;;;;5041463;28;20197;-43
2023/03/21 13:24:36;;;;;;;1.42;1.25;;;17.60;99.90;;;;;;5038982;28;20230;-43
2023/03/21 13:27:07;;;;;;;1.58;1.30;;;17.80;99.90;;;;;;5040624;28;20174;-42